Pasco, WA

1:07 AM PDT on September 21, 2014 (GMT -0700)
Hermiston Municipal | Change Station
CLOSE
Current Station
Airport
Location: Hermiston,
Elevation: 640 ft
Nearby Weather Stations

Elev 640 ft 45.83 °N, 119.26 °W | Updated 14 minutes ago

Clear
Clear
58 °F
Feels Like 58 °F
N
5
Wind Variable Wind from South

Today
High -- | Low -- °F
--% Chance of Precip.
Yesterday
High -- | Low -- °F
Precip. -- in
6:42 AM 6:55 PM
Waning Crescent, 8% visible
Pressure 29.91 in
Visibility 10.0 miles
Clouds Clear
Dew Point 48 °F
Humidity 70%
Rainfall 0.00 in
Snow Depth Not available.
UV 0 out of 12
Pollen 5.50 out of 12
Air Quality Not available.
Flu Activity Not available.
METAR KHRI 210753Z AUTO 18004KT 10SM CLR 14/09 A2992 RMK AO2 SLP129 T01440089 403220089

More Conditions Fewer Conditions

Pressure 29.91 in
Visibility 10.0 miles
Clouds Clear
Dew Point 48 °F
Humidity 70%
Rainfall 0.00 in
Snow Depth Not available.
UV 0 out of 12
Pollen 5.50 out of 12
Air Quality Not available.
Flu Activity Not available.
METAR KHRI 210753Z AUTO 18004KT 10SM CLR 14/09 A2992 RMK AO2 SLP129 T01440089 403220089

More Conditions Fewer Conditions

10-Day Weather Forecast

Almanac

Astronomy

Sep. 21, 2014 Rise Set
Actual Time 6:42 AM PDT 6:55 PM PDT
Civil Twilight 6:12 AM PDT 7:25 PM PDT
Nautical Twilight 5:36 AM PDT 8:00 PM PDT
Astronomical Twilight 5:00 AM PDT 8:37 PM PDT
Moon 4:13 AM PDT 5:39 PM PDT
Length of Visible Light 13h 13m
Length of Day
12h 13m
Tomorrow will be 3m 14s shorter.
Waning Crescent, 8% of the Moon is Illuminated
Today
Waning Crescent
Sep 24
New
Oct 1
First Quarter
Oct 8
Full
Oct 15
Last Quarter

Today's Extremes

State Highs State Lows

Community

WunderPhotos

Upload Photos

1,755,101 photos uploaded!

Nearby

Snow Depth

Station Depth Elevation
Pope Ridge 0 in 3540 ft
Grouse Camp 0 in 5380 ft
Elbow Lake 0 in 3200 ft
Lyman Lake 0 in 5900 ft
Lost Horse 0 in 5000 ft

Earthquake Activity

City Distance Mag. Time & Date
No recent earthquake activity has been reported nearby.
Minimum magnitude displayed is 2.5.

Coastal Water Temperatures

Place Temperature
No Stations Reporting

Nearby Weather Stations